Aeroporto :
LOGIN :

Iscrizione | Disclaimer

   EN    FR    IT 

 










Sommario :    VFR   VFR Marginale   IFR   IFR Intensivo   IFR Molto Intensivo
Visibilità : 
Base nubi : 
>= 8 km
>= 3000ft
5 / 8 km
1000 / 3000 ft
1500m / 5 km
500 / 1000 ft
800 / 1500m
200 / 500 ft
< 800m
< 200 ft
Simboli :   Temporali  Nebbia  Neve Forte  Precipitazioni Forti  Vento > 20 kt
SIGMETs :   Varie  Temporali  Ghiacco  Turbolenza  Onda orograficha  Ceneri Vulcaniche






- Altitudine del aeroporto : 390 ft
- Codice IATA : NQY


EGHQ - Newquay

ULTIMO METAR :
  • 190520Z 15004KT 9999 4000N VCFG NSC 14/14 Q1017

METARs OBSOLETI :
  • 190450Z AUTO 13006KT 0500 FG NCD 14/14 Q1017
  • 190420Z AUTO 13005KT 0100 FG NCD 14/14 Q1017
  • 190350Z AUTO 15004KT 3800 BR FEW007/// 14/14 Q1018
  • 190320Z AUTO 16003KT 4500 BR NCD 14/14 Q1018
  • 190250Z AUTO 18003KT 110V210 8000 NCD 14/14 Q1018
  • 190220Z AUTO 20003KT 9999 NCD 15/14 Q1018
  • 190150Z AUTO 15005KT 9999 NCD 15/14 Q1018
  • 190120Z AUTO 14004KT 9999 NCD 14/14 Q1018
  • 190050Z AUTO 15005KT 9999 NCD 15/14 Q1018

TAF TAF EGHQ
Valido dal 19 a 06 ore il 19 a 15 ore UTC


190506Z 1906/1915 14004KT 2000 BR FEW045
BECMG 1906/1908 9999 NSW
BECMG 1908/1911 20010KT
TEMPO 1910/1915 6000 -RADZ BKN007



MetMap, La meteo Aeronautica in un colpo d'occhio ! - Copyright ORBIFLY Dicembre 2007 - Disclaimer

ORBIFLY MET'MAP TEAM :

Programmazione e sviluppo : Alexandra Zaïnal
Concezione : Baudouin d'Aumeries
Supporto tecnico e logistico : Manuel Goepfert
Aiuto : Marc-Olivier Méhu
Aiuto per la traduzione : Arnaldo La Scala




FONTI E CREDITI :

   NOAA